createdAt,value
2023-02-28T00:01:33.838Z,3.31
2023-02-28T00:04:00.923Z,3.48
2023-02-28T00:06:28.862Z,3.44
2023-02-28T00:08:56.189Z,3.37
2023-02-28T00:11:23.135Z,3.46
2023-02-28T00:13:50.070Z,3.35
2023-02-28T00:16:22.811Z,3.44
2023-02-28T00:18:50.399Z,3.40
2023-02-28T00:21:19.126Z,3.44
2023-02-28T00:23:46.552Z,3.36
2023-02-28T00:26:13.665Z,3.38
2023-02-28T00:28:40.617Z,3.36
2023-02-28T00:31:07.567Z,3.36
2023-02-28T00:33:34.699Z,3.36
2023-02-28T00:36:11.615Z,3.36
2023-02-28T00:38:40.402Z,3.31
2023-02-28T00:41:08.323Z,3.20
2023-02-28T00:43:37.066Z,3.17
2023-02-28T00:46:04.512Z,3.06
2023-02-28T00:48:31.932Z,3.20
2023-02-28T00:50:58.946Z,3.11
2023-02-28T00:53:25.822Z,3.15
2023-02-28T00:55:52.863Z,3.21
2023-02-28T00:58:20.078Z,3.21
2023-02-28T01:00:50.429Z,3.23
2023-02-28T01:03:19.671Z,3.09
2023-02-28T01:05:47.400Z,3.20
2023-02-28T01:08:15.808Z,3.05
2023-02-28T01:10:43.503Z,3.17
2023-02-28T01:13:10.814Z,3.15
2023-02-28T01:15:38.962Z,3.00
2023-02-28T01:18:05.961Z,3.00
2023-02-28T01:20:32.948Z,3.07
2023-02-28T01:22:59.849Z,2.97
2023-02-28T01:25:26.850Z,3.06
2023-02-28T01:27:53.789Z,3.10
2023-02-28T01:30:20.806Z,3.02
2023-02-28T01:32:47.709Z,3.03
2023-02-28T01:35:14.788Z,3.11
2023-02-28T01:37:41.709Z,3.11
2023-02-28T01:40:09.593Z,2.98
2023-02-28T01:42:36.586Z,3.02
2023-02-28T01:45:31.547Z,3.08
2023-02-28T01:48:09.016Z,3.03
2023-02-28T01:50:42.536Z,3.06
2023-02-28T01:53:15.598Z,3.01
2023-02-28T01:55:46.469Z,3.06
2023-02-28T01:58:14.084Z,2.95
2023-02-28T02:00:43.562Z,2.86
2023-02-28T02:03:17.167Z,2.95
2023-02-28T02:05:48.496Z,3.02
2023-02-28T02:08:22.808Z,2.97
2023-02-28T02:11:01.138Z,2.89
2023-02-28T02:13:46.772Z,2.94
2023-02-28T02:16:46.488Z,2.92
2023-02-28T02:20:23.502Z,2.84
2023-02-28T02:23:21.820Z,2.90
2023-02-28T02:26:24.422Z,2.92
2023-02-28T02:29:23.225Z,2.89
2023-02-28T02:32:05.064Z,2.90
2023-02-28T02:35:03.978Z,2.89
2023-02-28T02:37:52.645Z,2.83
2023-02-28T02:40:31.047Z,2.79
2023-02-28T02:43:03.835Z,2.77
2023-02-28T02:45:50.896Z,2.87
2023-02-28T02:48:21.226Z,2.85
2023-02-28T02:50:56.838Z,2.68
2023-02-28T02:53:31.343Z,2.87
2023-02-28T02:56:01.050Z,2.89
2023-02-28T02:58:33.466Z,2.88
2023-02-28T03:01:03.539Z,2.83
2023-02-28T03:03:33.401Z,2.75
2023-02-28T03:06:02.531Z,2.83
2023-02-28T03:08:35.181Z,2.84
2023-02-28T03:11:08.316Z,2.84
2023-02-28T03:14:32.626Z,2.86
2023-02-28T03:16:59.320Z,2.90
2023-02-28T03:20:11.096Z,2.85
2023-02-28T03:23:17.800Z,2.89
2023-02-28T03:26:03.721Z,2.84
2023-02-28T03:28:48.741Z,2.94
2023-02-28T03:31:27.620Z,2.69
2023-02-28T03:34:13.442Z,2.91
2023-02-28T03:36:49.878Z,2.83
2023-02-28T03:39:25.528Z,2.81
2023-02-28T03:42:15.487Z,2.89
2023-02-28T03:44:54.073Z,2.89
2023-02-28T03:47:36.854Z,2.86
2023-02-28T03:50:14.008Z,2.87
2023-02-28T03:53:02.263Z,2.92
2023-02-28T03:55:41.726Z,2.82
2023-02-28T03:58:17.418Z,2.89
2023-02-28T04:00:54.048Z,2.92
2023-02-28T04:03:20.988Z,2.93
2023-02-28T04:05:56.466Z,2.93
2023-02-28T04:08:24.008Z,2.94
2023-02-28T04:11:29.826Z,2.87
2023-02-28T04:13:57.010Z,2.95
2023-02-28T04:16:34.430Z,2.92
2023-02-28T04:19:06.189Z,2.91
2023-02-28T04:21:37.364Z,2.94
2023-02-28T04:24:04.931Z,2.90
2023-02-28T04:26:37.476Z,2.95
2023-02-28T04:29:06.848Z,2.99
2023-02-28T04:31:34.239Z,3.03
2023-02-28T04:34:01.806Z,2.92
2023-02-28T04:36:28.709Z,2.94
2023-02-28T04:38:55.982Z,2.87
2023-02-28T04:41:23.706Z,3.00
2023-02-28T04:43:53.433Z,3.02
2023-02-28T04:46:21.005Z,3.01
2023-02-28T04:48:48.078Z,2.79
2023-02-28T04:51:17.741Z,3.02
2023-02-28T04:53:45.109Z,3.03
2023-02-28T04:56:15.133Z,3.04
2023-02-28T04:58:42.011Z,3.04
2023-02-28T05:01:26.399Z,3.02
2023-02-28T05:03:56.890Z,3.02
2023-02-28T05:06:26.420Z,3.07
2023-02-28T05:08:54.178Z,3.06
2023-02-28T05:11:26.543Z,3.01
2023-02-28T05:13:54.638Z,3.08
2023-02-28T05:16:21.675Z,2.97
2023-02-28T05:18:49.142Z,2.99
2023-02-28T05:21:32.540Z,2.75
2023-02-28T05:24:03.571Z,3.05
2023-02-28T05:26:31.467Z,3.03
2023-02-28T05:28:58.483Z,3.08
2023-02-28T05:31:25.332Z,2.99
2023-02-28T05:33:52.577Z,3.10
2023-02-28T05:36:19.793Z,3.05
2023-02-28T05:38:51.165Z,3.11
2023-02-28T05:41:20.394Z,3.05
2023-02-28T05:43:48.442Z,3.12
2023-02-28T05:46:16.074Z,3.15
2023-02-28T05:48:47.424Z,3.08
2023-02-28T05:51:14.506Z,3.17
2023-02-28T05:53:41.360Z,3.15
2023-02-28T05:56:08.354Z,3.14
2023-02-28T05:58:35.801Z,3.16
2023-02-28T06:01:24.941Z,3.15
2023-02-28T06:03:52.303Z,3.18
2023-02-28T06:06:19.652Z,3.13
2023-02-28T06:08:46.744Z,3.03
2023-02-28T06:11:13.913Z,2.98
2023-02-28T06:13:40.843Z,3.10
2023-02-28T06:16:08.873Z,3.11
2023-02-28T06:18:35.820Z,3.19
2023-02-28T06:21:02.741Z,3.15
2023-02-28T06:23:29.650Z,3.11
2023-02-28T06:25:59.188Z,3.21
2023-02-28T06:28:26.984Z,3.25
2023-02-28T06:30:53.944Z,3.17
2023-02-28T06:33:20.946Z,3.23
2023-02-28T06:35:51.341Z,3.25
2023-02-28T06:38:19.192Z,3.31
2023-02-28T06:40:57.245Z,3.32
2023-02-28T06:43:25.867Z,3.29
2023-02-28T06:45:57.796Z,3.19
2023-02-28T06:48:25.458Z,3.08
2023-02-28T06:50:53.394Z,3.27
2023-02-28T06:53:21.013Z,3.25
2023-02-28T06:55:47.812Z,3.19
2023-02-28T06:58:16.953Z,3.28
2023-02-28T07:00:44.764Z,3.31
2023-02-28T07:03:13.556Z,3.29
2023-02-28T07:05:40.957Z,3.10
2023-02-28T07:08:08.407Z,3.23
2023-02-28T07:10:38.464Z,3.34
2023-02-28T07:13:06.860Z,3.28
2023-02-28T07:15:33.674Z,3.17
2023-02-28T07:18:00.467Z,3.24
2023-02-28T07:20:27.298Z,3.40
2023-02-28T07:23:00.004Z,3.26
2023-02-28T07:25:29.104Z,3.34
2023-02-28T07:27:57.111Z,3.36
2023-02-28T07:30:24.005Z,3.32
2023-02-28T07:32:50.838Z,3.36
2023-02-28T07:35:17.710Z,3.46
2023-02-28T07:37:44.531Z,3.34
2023-02-28T07:40:12.856Z,3.48
2023-02-28T07:42:40.901Z,3.49
2023-02-28T07:45:12.579Z,3.38
2023-02-28T07:47:40.538Z,3.48
2023-02-28T07:50:11.650Z,3.57
2023-02-28T07:52:39.110Z,3.53
2023-02-28T07:55:07.966Z,3.57
2023-02-28T07:57:34.924Z,3.47
2023-02-28T08:00:02.426Z,3.63
2023-02-28T08:02:29.269Z,3.46
2023-02-28T08:04:56.119Z,3.50
2023-02-28T08:07:23.631Z,3.55
2023-02-28T08:09:50.496Z,3.66
2023-02-28T08:12:17.287Z,3.66
2023-02-28T08:14:44.092Z,3.69
2023-02-28T08:17:11.786Z,3.66
2023-02-28T08:19:38.585Z,3.69
2023-02-28T08:22:05.561Z,3.70
2023-02-28T08:24:32.402Z,3.68
2023-02-28T08:26:59.225Z,3.61
2023-02-28T08:29:26.157Z,3.64
2023-02-28T08:31:53.220Z,3.62
2023-02-28T08:34:20.188Z,3.62
2023-02-28T08:36:47.232Z,3.70
2023-02-28T08:39:14.317Z,3.74
2023-02-28T08:41:42.189Z,3.67
2023-02-28T08:44:09.108Z,3.74
2023-02-28T08:46:35.899Z,3.80
2023-02-28T08:49:02.913Z,3.74
2023-02-28T08:51:30.702Z,3.57
2023-02-28T08:54:01.136Z,3.83
2023-02-28T08:56:29.060Z,3.78
2023-02-28T08:58:57.764Z,3.86
2023-02-28T09:01:28.955Z,3.75
2023-02-28T09:03:57.760Z,3.84
2023-02-28T09:06:27.896Z,3.69
2023-02-28T09:08:59.434Z,3.90
2023-02-28T09:11:26.638Z,3.90
2023-02-28T09:13:53.782Z,3.92
2023-02-28T09:16:20.802Z,3.84
2023-02-28T09:18:48.032Z,3.94
2023-02-28T09:21:18.568Z,3.96
2023-02-28T09:23:47.711Z,3.91
2023-02-28T09:26:23.791Z,3.91
2023-02-28T09:28:51.935Z,3.94
2023-02-28T09:31:23.456Z,4.01
2023-02-28T09:33:52.469Z,4.06
2023-02-28T09:36:19.839Z,3.90
2023-02-28T09:38:48.760Z,4.04
2023-02-28T09:41:32.648Z,3.97
2023-02-28T09:44:05.088Z,3.84
2023-02-28T09:46:41.652Z,3.88
2023-02-28T09:49:15.909Z,3.81
2023-02-28T09:51:52.323Z,4.00
2023-02-28T09:54:24.250Z,4.09
2023-02-28T09:57:05.959Z,4.09
2023-02-28T10:00:00.424Z,3.70
2023-02-28T10:03:05.714Z,4.04
2023-02-28T10:05:49.884Z,4.08
2023-02-28T10:08:22.392Z,3.77
2023-02-28T10:10:59.678Z,4.10
2023-02-28T10:13:34.857Z,4.14
2023-02-28T10:16:15.674Z,4.12
2023-02-28T10:18:49.072Z,4.24
2023-02-28T10:21:39.075Z,4.30
2023-02-28T10:24:21.965Z,4.33
2023-02-28T10:26:49.755Z,4.29
2023-02-28T10:29:16.816Z,4.45
2023-02-28T10:31:44.009Z,4.44
2023-02-28T10:34:14.079Z,4.44
2023-02-28T10:36:44.015Z,4.50
2023-02-28T10:39:43.105Z,4.43
2023-02-28T10:42:27.661Z,4.48
2023-02-28T10:45:15.734Z,4.48
2023-02-28T10:48:05.552Z,4.29
2023-02-28T10:50:35.469Z,4.50
2023-02-28T10:53:26.282Z,4.51
2023-02-28T10:56:02.418Z,4.54
2023-02-28T10:58:50.828Z,4.51
2023-02-28T11:01:25.408Z,4.34
2023-02-28T11:03:53.866Z,4.50
2023-02-28T11:06:26.467Z,4.63
2023-02-28T11:08:59.575Z,4.67
2023-02-28T11:11:30.668Z,4.57
2023-02-28T11:14:05.565Z,4.70
2023-02-28T11:16:38.744Z,4.76
2023-02-28T11:19:18.713Z,4.81
2023-02-28T11:21:55.667Z,4.87
2023-02-28T11:24:37.400Z,4.70
2023-02-28T11:27:04.744Z,4.96
2023-02-28T11:29:35.767Z,4.99
2023-02-28T11:32:23.739Z,4.88
2023-02-28T11:35:11.652Z,5.01
2023-02-28T11:37:41.469Z,4.95
2023-02-28T11:40:22.969Z,4.72
2023-02-28T11:43:13.447Z,5.02
2023-02-28T11:45:49.000Z,5.09
2023-02-28T11:48:27.537Z,5.01
2023-02-28T11:51:23.256Z,5.30
2023-02-28T11:54:14.895Z,5.32
2023-02-28T11:56:53.119Z,5.24
2023-02-28T11:59:53.436Z,5.48
2023-02-28T12:03:15.646Z,5.49
2023-02-28T12:05:55.880Z,5.56
2023-02-28T12:08:54.685Z,5.51
2023-02-28T12:11:45.474Z,5.63
2023-02-28T12:15:04.360Z,5.61
2023-02-28T12:17:56.673Z,5.61
2023-02-28T12:20:50.741Z,5.54
2023-02-28T12:23:54.539Z,5.37
2023-02-28T12:26:35.929Z,5.61
2023-02-28T12:29:25.211Z,5.61
2023-02-28T12:32:14.551Z,5.44
2023-02-28T12:34:49.796Z,5.65
2023-02-28T12:37:25.358Z,5.75
2023-02-28T12:40:02.783Z,5.79
2023-02-28T12:42:40.857Z,5.75
2023-02-28T12:45:20.877Z,5.64
2023-02-28T12:47:58.119Z,5.62
2023-02-28T12:50:26.425Z,5.72
2023-02-28T12:53:07.864Z,5.78
2023-02-28T12:55:48.844Z,6.00
2023-02-28T12:58:28.920Z,6.14
2023-02-28T13:01:44.682Z,6.22
2023-02-28T13:04:45.150Z,6.33
2023-02-28T13:07:52.496Z,6.38
2023-02-28T13:10:19.933Z,6.29
2023-02-28T13:12:55.761Z,6.25
2023-02-28T13:15:29.548Z,6.11
2023-02-28T13:17:59.795Z,6.17
2023-02-28T13:20:34.987Z,6.12
2023-02-28T13:23:06.348Z,6.35
2023-02-28T13:25:38.973Z,6.37
2023-02-28T13:28:13.425Z,6.31
2023-02-28T13:31:00.544Z,6.45
2023-02-28T13:33:31.010Z,6.62
2023-02-28T13:36:18.654Z,6.86
2023-02-28T13:38:49.010Z,6.64
2023-02-28T13:41:34.359Z,6.60
2023-02-28T13:44:12.809Z,6.50
2023-02-28T13:46:48.638Z,6.68
2023-02-28T13:49:24.246Z,6.70
2023-02-28T13:51:53.932Z,6.65
2023-02-28T13:54:39.166Z,6.74
2023-02-28T13:57:31.658Z,6.90
2023-02-28T14:01:00.952Z,7.16
2023-02-28T14:03:50.207Z,7.16
2023-02-28T14:06:23.849Z,7.05
2023-02-28T14:09:33.522Z,6.81
2023-02-28T14:12:53.244Z,7.01
2023-02-28T14:15:50.959Z,6.91
2023-02-28T14:18:34.355Z,6.90
2023-02-28T14:21:35.041Z,6.76
2023-02-28T14:24:30.107Z,6.71
2023-02-28T14:27:24.224Z,6.82
2023-02-28T14:29:50.908Z,6.95
2023-02-28T14:32:29.381Z,6.96
2023-02-28T14:35:30.828Z,6.95
2023-02-28T14:37:58.441Z,6.79
2023-02-28T14:40:35.172Z,7.15
2023-02-28T14:43:05.904Z,7.29
2023-02-28T14:45:38.365Z,7.19
2023-02-28T14:48:10.993Z,7.12
2023-02-28T14:50:39.046Z,7.07
2023-02-28T14:53:18.261Z,7.07
2023-02-28T14:55:50.115Z,6.99
2023-02-28T14:58:23.589Z,7.07
2023-02-28T15:00:54.964Z,6.92
2023-02-28T15:03:37.866Z,6.82
2023-02-28T15:06:15.680Z,6.98
2023-02-28T15:08:42.540Z,7.00
2023-02-28T15:11:17.505Z,6.96
2023-02-28T15:13:57.699Z,7.04
2023-02-28T15:16:39.674Z,6.99
2023-02-28T15:19:21.911Z,7.01
2023-02-28T15:21:57.539Z,6.99
2023-02-28T15:24:45.246Z,7.02
2023-02-28T15:27:29.088Z,7.09
2023-02-28T15:29:59.734Z,7.01
2023-02-28T15:32:37.636Z,7.22
2023-02-28T15:35:30.269Z,7.34
2023-02-28T15:37:58.178Z,7.40
2023-02-28T15:40:31.708Z,7.28
2023-02-28T15:43:15.086Z,7.32
2023-02-28T15:45:50.348Z,7.32
2023-02-28T15:48:26.124Z,7.34
2023-02-28T15:50:57.236Z,7.37
2023-02-28T15:53:33.503Z,7.43
2023-02-28T15:56:05.538Z,7.26
2023-02-28T15:58:33.734Z,7.32
2023-02-28T16:01:35.951Z,7.34
2023-02-28T16:04:07.712Z,7.28
2023-02-28T16:06:40.634Z,7.27
2023-02-28T16:09:15.002Z,7.31
2023-02-28T16:11:54.546Z,7.23
2023-02-28T16:14:31.892Z,7.43
2023-02-28T16:17:24.641Z,7.47
2023-02-28T16:19:51.564Z,7.48
2023-02-28T16:22:18.509Z,7.54
2023-02-28T16:24:45.455Z,7.48
2023-02-28T16:27:21.737Z,7.57
2023-02-28T16:29:49.615Z,7.66
2023-02-28T16:32:17.253Z,7.62
2023-02-28T16:34:45.436Z,7.50
2023-02-28T16:37:17.744Z,7.68
2023-02-28T16:39:46.105Z,7.73
2023-02-28T16:42:24.498Z,7.74
2023-02-28T16:44:51.820Z,7.64
2023-02-28T16:47:19.012Z,7.65
2023-02-28T16:49:46.266Z,7.60
2023-02-28T16:52:13.126Z,7.74
2023-02-28T16:54:42.052Z,7.71
2023-02-28T16:57:22.234Z,7.72
2023-02-28T16:59:51.899Z,7.71
2023-02-28T17:02:22.925Z,7.37
2023-02-28T17:04:49.965Z,7.71
2023-02-28T17:07:17.654Z,7.66
2023-02-28T17:09:46.828Z,7.57
2023-02-28T17:12:14.286Z,7.61
2023-02-28T17:14:41.437Z,7.57
2023-02-28T17:17:14.141Z,7.53
2023-02-28T17:19:43.989Z,7.56
2023-02-28T17:22:11.289Z,7.43
2023-02-28T17:24:38.160Z,7.42
2023-02-28T17:27:05.369Z,7.48
2023-02-28T17:29:32.256Z,7.41
2023-02-28T17:32:03.083Z,7.30
2023-02-28T17:34:35.671Z,7.32
2023-02-28T17:37:03.825Z,7.29
2023-02-28T17:39:31.849Z,7.24
2023-02-28T17:41:58.638Z,7.37
2023-02-28T17:44:26.015Z,7.22
2023-02-28T17:46:55.232Z,7.23
2023-02-28T17:49:22.094Z,7.10
2023-02-28T17:51:50.058Z,7.22
2023-02-28T17:54:18.969Z,7.19
2023-02-28T17:56:46.048Z,7.17
2023-02-28T17:59:13.990Z,7.16
2023-02-28T18:01:40.864Z,7.14
2023-02-28T18:04:07.915Z,6.97
2023-02-28T18:06:47.438Z,7.07
2023-02-28T18:09:22.723Z,7.00
2023-02-28T18:11:52.034Z,6.99
2023-02-28T18:14:21.707Z,6.95
2023-02-28T18:16:48.495Z,6.94
2023-02-28T18:19:17.169Z,6.78
2023-02-28T18:21:46.485Z,6.76
2023-02-28T18:24:14.206Z,6.70
2023-02-28T18:26:42.032Z,6.79
2023-02-28T18:29:09.847Z,6.77
2023-02-28T18:31:36.725Z,6.77
2023-02-28T18:34:03.561Z,6.64
2023-02-28T18:36:30.760Z,6.67
2023-02-28T18:38:59.022Z,6.71
2023-02-28T18:41:25.961Z,6.60
2023-02-28T18:43:54.206Z,6.55
2023-02-28T18:46:21.657Z,6.62
2023-02-28T18:48:48.815Z,6.52
2023-02-28T18:51:22.957Z,6.49
2023-02-28T18:53:50.231Z,6.57
2023-02-28T18:56:20.339Z,6.45
2023-02-28T18:58:47.252Z,6.51
2023-02-28T19:01:30.061Z,6.42
2023-02-28T19:03:58.849Z,6.35
2023-02-28T19:06:25.922Z,6.13
2023-02-28T19:09:01.884Z,6.39
2023-02-28T19:11:29.615Z,6.35
2023-02-28T19:13:57.171Z,6.06
2023-02-28T19:16:27.268Z,6.25
2023-02-28T19:18:54.955Z,6.22
2023-02-28T19:21:23.996Z,6.20
2023-02-28T19:23:51.009Z,6.09
2023-02-28T19:26:24.815Z,6.12
2023-02-28T19:28:51.710Z,6.10
2023-02-28T19:31:23.839Z,6.06
2023-02-28T19:33:52.792Z,5.94
2023-02-28T19:36:20.630Z,5.96
2023-02-28T19:38:48.076Z,5.93
2023-02-28T19:41:16.828Z,5.83
2023-02-28T19:43:44.044Z,5.77
2023-02-28T19:46:12.152Z,5.79
2023-02-28T19:48:39.677Z,5.66
2023-02-28T19:51:12.495Z,5.71
2023-02-28T19:53:41.255Z,5.69
2023-02-28T19:56:09.571Z,5.60
2023-02-28T19:58:36.939Z,5.62
2023-02-28T20:01:14.582Z,5.59
2023-02-28T20:03:42.443Z,5.60
2023-02-28T20:06:13.789Z,5.56
2023-02-28T20:08:41.641Z,5.48
2023-02-28T20:11:15.037Z,5.39
2023-02-28T20:13:42.255Z,5.53
2023-02-28T20:16:11.742Z,5.29
2023-02-28T20:18:39.952Z,5.39
2023-02-28T20:21:11.410Z,5.26
2023-02-28T20:23:41.869Z,5.24
2023-02-28T20:26:09.956Z,5.39
2023-02-28T20:28:37.501Z,5.38
2023-02-28T20:31:13.744Z,5.37
2023-02-28T20:33:42.275Z,5.23
2023-02-28T20:36:10.155Z,5.30
2023-02-28T20:38:37.114Z,5.21
2023-02-28T20:41:05.763Z,5.19
2023-02-28T20:43:32.588Z,5.15
2023-02-28T20:46:01.871Z,5.25
2023-02-28T20:48:30.902Z,5.15
2023-02-28T20:50:59.355Z,5.16
2023-02-28T20:53:28.045Z,5.02
2023-02-28T20:56:03.986Z,5.17
2023-02-28T20:58:34.330Z,5.12
2023-02-28T21:01:12.489Z,5.01
2023-02-28T21:03:40.107Z,5.09
2023-02-28T21:06:07.910Z,5.13
2023-02-28T21:08:36.847Z,5.13
2023-02-28T21:11:13.877Z,5.11
2023-02-28T21:13:42.055Z,5.12
2023-02-28T21:16:12.761Z,5.10
2023-02-28T21:18:40.228Z,4.89
2023-02-28T21:21:11.687Z,5.02
2023-02-28T21:23:38.741Z,4.93
2023-02-28T21:26:11.983Z,4.93
2023-02-28T21:28:43.950Z,4.98
2023-02-28T21:31:14.403Z,4.95
2023-02-28T21:33:41.412Z,4.87
2023-02-28T21:36:11.889Z,4.95
2023-02-28T21:38:39.384Z,4.98
2023-02-28T21:41:15.051Z,4.91
2023-02-28T21:43:43.564Z,4.93
2023-02-28T21:46:14.855Z,4.88
2023-02-28T21:48:42.533Z,4.73
2023-02-28T21:51:17.004Z,4.74
2023-02-28T21:53:44.546Z,4.85
2023-02-28T21:56:19.255Z,4.82
2023-02-28T21:58:47.073Z,4.79
2023-02-28T22:01:19.004Z,4.80
2023-02-28T22:03:47.359Z,4.66
2023-02-28T22:06:24.095Z,4.71
2023-02-28T22:08:54.303Z,4.72
2023-02-28T22:11:22.929Z,4.60
2023-02-28T22:13:52.800Z,4.64
2023-02-28T22:16:21.742Z,4.68
2023-02-28T22:18:49.272Z,4.64
2023-02-28T22:21:18.214Z,4.30
2023-02-28T22:23:46.118Z,4.61
2023-02-28T22:26:17.251Z,4.53
2023-02-28T22:28:44.312Z,4.44
2023-02-28T22:31:25.950Z,4.48
2023-02-28T22:33:57.163Z,4.37
2023-02-28T22:36:24.888Z,4.39
2023-02-28T22:38:53.100Z,4.13
2023-02-28T22:41:22.940Z,4.09
2023-02-28T22:43:57.660Z,4.24
2023-02-28T22:46:26.160Z,4.30
2023-02-28T22:48:53.839Z,4.24
2023-02-28T22:51:25.998Z,4.20
2023-02-28T22:53:54.591Z,4.22
2023-02-28T22:56:24.843Z,4.21
2023-02-28T22:58:55.719Z,4.14
2023-02-28T23:01:26.362Z,3.91
2023-02-28T23:03:53.468Z,4.10
2023-02-28T23:06:30.466Z,4.09
2023-02-28T23:09:07.086Z,4.06
2023-02-28T23:11:39.195Z,3.97
2023-02-28T23:14:06.729Z,3.99
2023-02-28T23:16:42.377Z,4.01
2023-02-28T23:19:16.847Z,4.01
2023-02-28T23:21:45.067Z,3.85
2023-02-28T23:24:15.454Z,3.91
2023-02-28T23:26:48.984Z,3.90
2023-02-28T23:29:21.284Z,3.93
2023-02-28T23:31:50.086Z,3.90
2023-02-28T23:34:24.840Z,3.86
2023-02-28T23:36:53.125Z,3.89
2023-02-28T23:39:20.956Z,3.79
2023-02-28T23:41:47.970Z,3.88
2023-02-28T23:44:16.901Z,3.84
2023-02-28T23:46:50.131Z,3.77
2023-02-28T23:49:21.035Z,3.74
2023-02-28T23:51:50.268Z,3.71
2023-02-28T23:54:18.460Z,3.61
2023-02-28T23:56:45.721Z,3.76
2023-02-28T23:59:12.767Z,3.73
